Time;durP1;ratioP1;P1;durP2;ratioP2;P2;SDS_P1;SDS_P2;PMS_P1;PMS_P2;Temp;Humidity;BMP_temperature;BMP_pressure;BME280_temperature;BME280_humidity;BME280_pressure;Samples;Min_cycle;Max_cycle;Signal;HPM_P1;HPM_P2
2022/12/05 00:01:19;;;;;;;;;;;4.80;99.90;;;;;;5092192;28;19942;-40
2022/12/05 00:03:46;;;;;;;;;;;4.80;99.90;;;;;;5092422;28;19963;-40
2022/12/05 00:06:12;;;;;;;;;;;4.90;99.90;;;;;;5092207;28;19914;-39
2022/12/05 00:08:37;;;;;;;;;;;4.90;99.90;;;;;;5092696;28;20007;-40
2022/12/05 00:11:03;;;;;;;;;;;4.90;99.90;;;;;;5096110;28;20006;-40
2022/12/05 00:13:28;;;;;;;;;;;4.90;99.90;;;;;;5095634;28;20394;-40
2022/12/05 00:15:53;;;;;;;;;;;4.90;99.90;;;;;;5112682;28;19919;-39
2022/12/05 00:18:19;;;;;;;;;;;4.90;99.90;;;;;;5113002;28;20263;-39
2022/12/05 00:20:45;;;;;;;;;;;4.90;99.90;;;;;;5112337;28;19908;-40
2022/12/05 00:23:11;;;;;;;;;;;4.90;99.90;;;;;;5112625;28;19907;-39
2022/12/05 00:25:36;;;;;;;;;;;4.90;99.90;;;;;;5112725;28;20270;-39
2022/12/05 00:28:01;;;;;;;;;;;4.90;99.90;;;;;;5112326;28;20251;-41
2022/12/05 00:30:27;;;;;;;;;;;4.90;99.90;;;;;;5112683;28;19955;-43
2022/12/05 00:32:52;;;;;;;;;;;4.80;99.90;;;;;;5112806;28;19908;-40
2022/12/05 00:35:18;;;;;;;;;;;4.90;99.90;;;;;;5112439;28;19915;-40
2022/12/05 00:37:43;;;;;;;;;;;4.90;99.90;;;;;;5108436;28;19916;-39
2022/12/05 00:40:09;;;;;;;;;;;4.90;99.90;;;;;;5096235;28;19918;-40
2022/12/05 00:42:35;;;;;;;;;;;4.90;99.90;;;;;;5095727;28;19908;-40
2022/12/05 00:45:00;;;;;;;;;;;4.90;99.90;;;;;;5096080;28;20007;-39
2022/12/05 00:47:26;;;;;;;;;;;4.90;99.90;;;;;;5096159;28;19927;-39
2022/12/05 00:49:51;;;;;;;;;;;4.90;99.90;;;;;;5095581;28;19994;-39
2022/12/05 00:52:17;;;;;;;;;;;4.90;99.90;;;;;;5095846;28;19909;-39
2022/12/05 00:54:42;;;;;;;;;;;4.90;99.90;;;;;;5095952;28;20003;-39
2022/12/05 00:57:08;;;;;;;;;;;4.90;99.90;;;;;;5095410;28;19934;-39
2022/12/05 00:59:33;;;;;;;;;;;5.00;99.90;;;;;;5095724;28;19908;-41
2022/12/05 01:01:59;;;;;;;;;;;4.90;99.90;;;;;;5095907;28;19916;-40
2022/12/05 01:04:24;;;;;;;;;;;4.90;99.90;;;;;;5099176;28;19920;-39
2022/12/05 01:06:53;;;;;;;;;;;4.90;99.90;;;;;;5115479;28;20358;-39
2022/12/05 01:09:19;;;;;;;;;;;5.00;99.90;;;;;;5115235;28;19935;-39
2022/12/05 01:11:44;;;;;;;;;;;5.00;99.90;;;;;;5116026;28;20374;-40
2022/12/05 01:14:11;;;;;;;;;;;5.00;99.90;;;;;;5115911;28;19915;-41
2022/12/05 01:16:38;;;;;;;;;;;5.00;99.90;;;;;;5115433;28;20281;-39
2022/12/05 01:19:05;;;;;;;;;;;5.00;99.90;;;;;;5115808;28;19914;-41
2022/12/05 01:21:30;;;;;;;;;;;5.00;99.90;;;;;;5115903;28;20370;-40
2022/12/05 01:23:56;;;;;;;;;;;5.00;99.90;;;;;;5115426;28;19921;-40
2022/12/05 01:26:22;;;;;;;;;;;5.00;99.90;;;;;;5115675;28;20286;-39
2022/12/05 01:28:48;;;;;;;;;;;5.00;99.90;;;;;;5115770;28;20347;-39
2022/12/05 01:31:14;;;;;;;;;;;5.10;99.90;;;;;;5115163;28;19908;-39
2022/12/05 01:33:39;;;;;;;;;;;5.10;99.90;;;;;;5111341;28;19912;-40
2022/12/05 01:36:09;;;;;;;;;;;5.10;99.90;;;;;;5095129;28;19916;-39
2022/12/05 01:38:34;;;;;;;;;;;5.10;99.90;;;;;;5099283;28;19912;-39
2022/12/05 01:41:01;;;;;;;;;;;5.10;99.90;;;;;;5115532;28;19961;-40
2022/12/05 01:43:27;;;;;;;;;;;5.10;99.90;;;;;;5109839;28;19911;-39
2022/12/05 01:45:52;;;;;;;;;;;5.20;99.90;;;;;;5114918;28;19968;-39
2022/12/05 01:48:23;;;;;;;;;;;5.20;99.90;;;;;;5114997;28;20006;-40
2022/12/05 01:50:49;;;;;;;;;;;5.20;99.90;;;;;;5115352;28;19908;-39
2022/12/05 01:53:15;;;;;;;;;;;5.30;99.90;;;;;;5114782;28;20017;-39
2022/12/05 01:55:41;;;;;;;;;;;5.30;99.90;;;;;;5114970;28;19999;-39
2022/12/05 01:58:08;;;;;;;;;;;5.30;99.90;;;;;;5095047;28;19908;-40
2022/12/05 02:00:33;;;;;;;;;;;5.30;99.90;;;;;;5094228;28;19908;-41
2022/12/05 02:03:00;;;;;;;;;;;5.30;99.90;;;;;;5094462;28;20006;-40
2022/12/05 02:05:30;;;;;;;;;;;5.30;99.90;;;;;;5112943;28;19998;-40
2022/12/05 02:07:56;;;;;;;;;;;5.30;99.90;;;;;;5115112;28;19908;-39
2022/12/05 02:10:22;;;;;;;;;;;5.40;99.90;;;;;;5114556;28;20007;-40
2022/12/05 02:12:48;;;;;;;;;;;5.30;99.90;;;;;;5109036;28;20030;-41
2022/12/05 02:15:17;;;;;;;;;;;5.40;99.90;;;;;;5112998;28;19935;-39
2022/12/05 02:18:02;;;;;;;;;;;5.40;99.90;;;;;;5114858;28;19908;-39
2022/12/05 02:20:36;;;;;;;;;;;5.40;99.90;;;;;;5113725;28;19915;-39
2022/12/05 02:23:10;;;;;;;;;;;5.40;99.90;;;;;;5114578;28;20358;-41
2022/12/05 02:25:36;;;;;;;;;;;5.40;99.90;;;;;;5114577;28;19925;-39
2022/12/05 02:28:19;;;;;;;;;;;5.40;99.90;;;;;;5114163;28;20002;-39
2022/12/05 02:30:51;;;;;;;;;;;5.40;99.90;;;;;;5114270;28;19973;-39
2022/12/05 02:33:23;;;;;;;;;;;5.40;99.90;;;;;;5114595;28;20319;-39
2022/12/05 02:35:55;;;;;;;;;;;5.40;99.90;;;;;;5113933;28;19938;-39
2022/12/05 02:38:28;;;;;;;;;;;5.50;99.90;;;;;;5114125;28;20392;-39
2022/12/05 02:41:02;;;;;;;;;;;5.50;99.90;;;;;;5113338;28;19908;-41
2022/12/05 02:43:36;;;;;;;;;;;5.50;99.90;;;;;;5093808;28;19983;-41
2022/12/05 02:46:05;;;;;;;;;;;5.50;99.90;;;;;;5113613;28;19919;-39
2022/12/05 02:48:32;;;;;;;;;;;5.50;99.90;;;;;;5113437;28;20306;-41
2022/12/05 02:50:58;;;;;;;;;;;5.50;99.90;;;;;;5114096;28;19955;-39
2022/12/05 02:53:25;;;;;;;;;;;5.50;99.90;;;;;;5114119;28;19939;-39
2022/12/05 02:55:51;;;;;;;;;;;5.50;99.90;;;;;;5113567;28;19908;-40
2022/12/05 02:58:20;;;;;;;;;;;5.50;99.90;;;;;;5113633;28;19914;-39
2022/12/05 03:00:47;;;;;;;;;;;5.50;99.90;;;;;;5113962;28;19907;-39
2022/12/05 03:03:14;;;;;;;;;;;5.50;99.90;;;;;;5113339;28;19907;-40
2022/12/05 03:05:41;;;;;;;;;;;5.60;99.90;;;;;;5113628;28;19959;-38
2022/12/05 03:08:11;;;;;;;;;;;5.60;99.90;;;;;;5113775;28;19908;-40
2022/12/05 03:10:38;;;;;;;;;;;5.60;99.90;;;;;;5112900;28;20421;-39
2022/12/05 03:13:06;;;;;;;;;;;5.60;99.90;;;;;;5113692;28;19908;-39
2022/12/05 03:15:33;;;;;;;;;;;5.60;99.90;;;;;;5111611;28;19918;-38
2022/12/05 03:18:05;;;;;;;;;;;5.60;99.90;;;;;;5113181;28;19908;-38
2022/12/05 03:20:41;;;;;;;;;;;5.60;99.90;;;;;;5113311;28;19949;-39
2022/12/05 03:23:11;;;;;;;;;;;5.60;99.90;;;;;;5112767;28;19911;-39
2022/12/05 03:25:46;;;;;;;;;;;5.60;99.90;;;;;;5113221;28;19912;-39
2022/12/05 03:28:20;;;;;;;;;;;5.60;99.90;;;;;;5113661;28;19908;-40
2022/12/05 03:30:46;;;;;;;;;;;5.60;99.90;;;;;;5112873;28;19908;-39
2022/12/05 03:33:31;;;;;;;;;;;5.60;99.90;;;;;;5113238;28;20006;-40
2022/12/05 03:35:57;;;;;;;;;;;5.60;99.90;;;;;;5113470;28;19915;-39
2022/12/05 03:38:31;;;;;;;;;;;5.60;99.90;;;;;;5112853;28;20267;-39
2022/12/05 03:41:15;;;;;;;;;;;5.60;99.90;;;;;;5113104;28;19962;-39
2022/12/05 03:43:44;;;;;;;;;;;5.60;99.90;;;;;;5112086;28;20377;-41
2022/12/05 03:46:21;;;;;;;;;;;5.60;99.90;;;;;;5093437;28;19935;-41
2022/12/05 03:49:13;;;;;;;;;;;5.60;99.90;;;;;;5092808;28;19927;-38
2022/12/05 03:51:57;;;;;;;;;;;5.60;99.90;;;;;;5060546;28;19953;-39
2022/12/05 03:54:24;;;;;;;;;;;5.60;99.90;;;;;;5092589;28;20367;-39
2022/12/05 03:56:53;;;;;;;;;;;5.60;99.90;;;;;;5092736;28;19960;-40
2022/12/05 03:59:25;;;;;;;;;;;5.60;99.90;;;;;;5092264;28;19931;-39
2022/12/05 04:01:52;;;;;;;;;;;5.60;99.90;;;;;;5092451;28;20082;-39
2022/12/05 04:04:23;;;;;;;;;;;5.60;99.90;;;;;;5092504;28;19916;-38
2022/12/05 04:06:49;;;;;;;;;;;5.60;99.90;;;;;;5092239;28;19914;-38
2022/12/05 04:09:18;;;;;;;;;;;5.60;99.90;;;;;;5092654;28;20023;-39
2022/12/05 04:11:48;;;;;;;;;;;5.60;99.90;;;;;;5074128;28;19974;-41
2022/12/05 04:14:17;;;;;;;;;;;5.60;99.90;;;;;;5082179;28;19915;-40
2022/12/05 04:17:03;;;;;;;;;;;5.60;99.90;;;;;;5096334;28;19934;-39
2022/12/05 04:22:27;;;;;;;;;;;5.60;99.90;;;;;;5096165;28;20271;-41
2022/12/05 04:27:47;;;;;;;;;;;5.60;99.90;;;;;;5096236;28;19961;-40
2022/12/05 04:30:23;;;;;;;;;;;5.60;99.90;;;;;;5096266;28;19912;-39
2022/12/05 04:32:56;;;;;;;;;;;5.60;99.90;;;;;;5096340;28;19961;-40
2022/12/05 04:35:24;;;;;;;;;;;5.60;99.90;;;;;;5095869;28;19908;-39
2022/12/05 04:37:52;;;;;;;;;;;5.60;99.90;;;;;;5096010;28;20002;-38
2022/12/05 04:40:20;;;;;;;;;;;5.60;99.90;;;;;;5095684;28;19908;-40
2022/12/05 04:42:46;;;;;;;;;;;5.70;99.90;;;;;;5095896;28;20273;-40
2022/12/05 04:45:14;;;;;;;;;;;5.60;99.90;;;;;;5081957;28;20333;-39
2022/12/05 04:47:43;;;;;;;;;;;5.60;99.90;;;;;;5075208;28;19971;-39
2022/12/05 04:50:10;;;;;;;;;;;5.60;99.90;;;;;;5075491;28;19908;-39
2022/12/05 04:52:36;;;;;;;;;;;5.70;99.90;;;;;;5075625;28;20339;-38
2022/12/05 04:55:07;;;;;;;;;;;5.70;99.90;;;;;;5075074;28;19987;-41
2022/12/05 04:57:39;;;;;;;;;;;5.70;99.90;;;;;;5075391;28;19915;-40
2022/12/05 05:00:05;;;;;;;;;;;5.60;99.90;;;;;;5075678;28;19908;-40
2022/12/05 05:02:43;;;;;;;;;;;5.60;99.90;;;;;;5074746;28;19915;-39
2022/12/05 05:05:10;;;;;;;;;;;5.60;99.90;;;;;;5075184;28;19916;-39
2022/12/05 05:07:42;;;;;;;;;;;5.60;99.90;;;;;;5075682;28;20344;-39
2022/12/05 05:10:11;;;;;;;;;;;5.60;99.90;;;;;;5074695;28;19927;-39
2022/12/05 05:12:36;;;;;;;;;;;5.70;99.90;;;;;;5074809;28;19950;-39
2022/12/05 05:15:02;;;;;;;;;;;5.60;99.90;;;;;;5078656;28;19943;-40
2022/12/05 05:17:27;;;;;;;;;;;5.70;99.90;;;;;;5094945;28;19908;-40
2022/12/05 05:20:22;;;;;;;;;;;5.70;99.90;;;;;;5095213;28;19915;-39
2022/12/05 05:22:38;;;;;;;;;;;5.70;99.90;;;;;;5094032;28;19912;-39
2022/12/05 05:25:04;;;;;;;;;;;5.70;99.90;;;;;;5095207;28;20424;-39
2022/12/05 05:27:29;;;;;;;;;;;5.70;99.90;;;;;;5095280;28;19927;-39
2022/12/05 05:29:55;;;;;;;;;;;5.70;99.90;;;;;;5094479;28;20428;-39
2022/12/05 05:32:20;;;;;;;;;;;5.70;99.90;;;;;;5092775;28;20002;-38
2022/12/05 05:34:46;;;;;;;;;;;5.70;99.90;;;;;;5074779;28;19908;-39
2022/12/05 05:37:11;;;;;;;;;;;5.70;99.90;;;;;;5074261;28;19935;-39
2022/12/05 05:39:36;;;;;;;;;;;5.70;99.90;;;;;;5074563;28;19909;-39
2022/12/05 05:42:02;;;;;;;;;;;5.70;99.90;;;;;;5078081;28;19951;-39
2022/12/05 05:44:27;;;;;;;;;;;5.70;99.90;;;;;;5084650;28;20307;-39
2022/12/05 05:46:53;;;;;;;;;;;5.70;99.90;;;;;;5074551;28;19908;-39
2022/12/05 05:49:19;;;;;;;;;;;5.70;99.90;;;;;;5074767;28;19954;-39
2022/12/05 05:51:44;;;;;;;;;;;5.70;99.90;;;;;;5074115;28;19909;-40
2022/12/05 05:54:09;;;;;;;;;;;5.70;99.90;;;;;;5074161;28;19912;-39
2022/12/05 05:56:35;;;;;;;;;;;5.70;99.90;;;;;;5101790;28;19920;-39
2022/12/05 05:59:02;;;;;;;;;;;5.70;99.90;;;;;;5108449;28;20311;-39
2022/12/05 06:01:28;;;;;;;;;;;5.70;99.90;;;;;;5104288;28;20006;-39
2022/12/05 06:03:54;;;;;;;;;;;5.70;99.90;;;;;;5103814;28;20023;-40
2022/12/05 06:06:20;;;;;;;;;;;5.70;99.90;;;;;;5099029;28;20265;-40
2022/12/05 06:08:45;;;;;;;;;;;5.70;99.90;;;;;;5096334;28;20397;-40
2022/12/05 06:11:15;;;;;;;;;;;5.70;99.90;;;;;;5109815;28;20006;-41
2022/12/05 06:13:41;;;;;;;;;;;5.70;99.90;;;;;;5109796;28;19931;-39
2022/12/05 06:16:07;;;;;;;;;;;5.70;99.90;;;;;;5114367;28;19912;-39
2022/12/05 06:18:33;;;;;;;;;;;5.70;99.90;;;;;;5114145;28;19994;-39
2022/12/05 06:20:59;;;;;;;;;;;5.70;99.90;;;;;;5113074;28;20042;-39
2022/12/05 06:23:25;;;;;;;;;;;5.70;99.90;;;;;;5113150;28;19951;-40
2022/12/05 06:25:52;;;;;;;;;;;5.70;99.90;;;;;;5108779;28;19912;-38
2022/12/05 06:28:17;;;;;;;;;;;5.80;99.90;;;;;;5113134;27;19912;-38
2022/12/05 06:30:43;;;;;;;;;;;5.70;99.90;;;;;;5116498;27;19923;-38
2022/12/05 06:33:10;;;;;;;;;;;5.70;99.90;;;;;;5111714;28;20382;-39
2022/12/05 06:35:35;;;;;;;;;;;5.70;99.90;;;;;;5111549;28;19920;-40
2022/12/05 06:38:01;;;;;;;;;;;5.80;99.90;;;;;;5112421;28;19907;-39
2022/12/05 06:40:26;;;;;;;;;;;5.70;99.90;;;;;;5111642;28;20007;-39
2022/12/05 06:42:52;;;;;;;;;;;5.70;99.90;;;;;;5112336;28;19951;-39
2022/12/05 06:45:17;;;;;;;;;;;5.70;99.90;;;;;;5110822;28;19920;-39
2022/12/05 06:47:43;;;;;;;;;;;5.80;99.90;;;;;;5111473;28;20389;-38
2022/12/05 06:50:08;;;;;;;;;;;5.80;99.90;;;;;;5112404;28;19915;-40
2022/12/05 06:52:34;;;;;;;;;;;5.70;99.90;;;;;;5112201;28;19908;-38
2022/12/05 06:54:59;;;;;;;;;;;5.70;99.90;;;;;;5111648;28;19915;-39
2022/12/05 06:57:26;;;;;;;;;;;5.80;99.90;;;;;;5111905;28;19960;-38
2022/12/05 07:01:37;;;;;;;;;;;5.70;99.90;;;;;;5108613;28;19962;-39
2022/12/05 07:02:37;;;;;;;;;;;5.70;99.90;;;;;;5109999;28;19908;-40
2022/12/05 07:05:03;;;;;;;;;;;5.70;99.90;;;;;;5112100;28;19920;-38
2022/12/05 07:07:28;;;;;;;;;;;5.80;99.90;;;;;;5111845;28;19919;-40
2022/12/05 07:09:54;;;;;;;;;;;5.80;99.90;;;;;;5108353;28;19927;-39
2022/12/05 07:12:19;;;;;;;;;;;5.80;99.90;;;;;;5112071;28;20346;-39
2022/12/05 07:14:45;;;;;;;;;;;5.80;99.90;;;;;;5107715;28;19951;-39
2022/12/05 07:17:11;;;;;;;;;;;5.80;99.90;;;;;;5111111;28;19912;-39
2022/12/05 07:19:36;;;;;;;;;;;5.80;99.90;;;;;;5112041;28;19908;-38
2022/12/05 07:22:02;;;;;;;;;;;5.80;99.90;;;;;;5111331;28;19933;-38
2022/12/05 07:24:27;;;;;;;;;;;5.80;99.90;;;;;;5111182;28;19968;-40
2022/12/05 07:26:53;;;;;;;;;;;5.80;99.90;;;;;;5111942;28;19969;-38
2022/12/05 07:29:18;;;;;;;;;;;5.80;99.90;;;;;;5111493;28;19912;-39
2022/12/05 07:31:44;;;;;;;;;;;5.80;99.90;;;;;;5111490;28;20285;-40
2022/12/05 07:34:09;;;;;;;;;;;5.80;99.90;;;;;;5112193;28;19916;-40
2022/12/05 07:36:35;;;;;;;;;;;5.80;99.90;;;;;;5112770;28;20354;-40
2022/12/05 07:39:00;;;;;;;;;;;5.80;99.90;;;;;;5097554;28;19915;-39
2022/12/05 07:41:27;;;;;;;;;;;5.80;99.90;;;;;;5092945;28;19961;-39
2022/12/05 07:43:53;;;;;;;;;;;5.80;99.90;;;;;;5093312;28;19935;-40
2022/12/05 07:46:19;;;;;;;;;;;5.80;99.90;;;;;;5107424;28;19919;-40
2022/12/05 07:48:45;;;;;;;;;;;5.80;99.90;;;;;;5104849;28;19912;-40
2022/12/05 07:51:11;;;;;;;;;;;5.80;99.90;;;;;;5093458;28;19991;-39
2022/12/05 07:53:37;;;;;;;;;;;5.80;99.90;;;;;;5091255;28;20070;-40
2022/12/05 07:56:04;;;;;;;;;;;5.80;99.90;;;;;;5095930;28;19919;-39
2022/12/05 07:58:30;;;;;;;;;;;5.80;99.90;;;;;;5101401;28;19911;-39
2022/12/05 08:00:57;;;;;;;;;;;5.80;99.90;;;;;;5112821;28;20049;-40
2022/12/05 08:03:23;;;;;;;;;;;5.80;99.90;;;;;;5123535;28;19908;-39
2022/12/05 08:05:48;;;;;;;;;;;5.80;99.90;;;;;;5132993;28;19911;-40
2022/12/05 08:08:14;;;;;;;;;;;5.80;99.90;;;;;;5127679;28;19908;-40
2022/12/05 08:10:39;;;;;;;;;;;5.80;99.90;;;;;;5090093;28;20291;-41
2022/12/05 08:13:06;;;;;;;;;;;5.80;99.90;;;;;;5087665;28;19914;-40
2022/12/05 08:15:33;;;;;;;;;;;5.80;99.90;;;;;;5112947;28;19907;-40
2022/12/05 08:17:58;;;;;;;;;;;5.90;99.90;;;;;;5091180;28;19959;-40
2022/12/05 08:20:24;;;;;;;;;;;5.80;99.90;;;;;;5091526;28;19973;-40
2022/12/05 08:22:50;;;;;;;;;;;5.90;99.90;;;;;;5092320;28;19912;-39
2022/12/05 08:25:16;;;;;;;;;;;5.90;99.90;;;;;;5092067;28;19917;-42
2022/12/05 08:27:41;;;;;;;;;;;5.80;99.90;;;;;;5091357;28;19919;-39
2022/12/05 08:30:07;;;;;;;;;;;5.80;99.90;;;;;;5092289;28;19908;-41
2022/12/05 08:32:32;;;;;;;;;;;5.80;99.90;;;;;;5091738;28;20405;-40
2022/12/05 08:34:58;;;;;;;;;;;5.90;99.90;;;;;;5092019;28;20282;-41
2022/12/05 08:37:23;;;;;;;;;;;5.80;99.90;;;;;;5074356;28;19978;-41
2022/12/05 08:39:49;;;;;;;;;;;5.80;99.90;;;;;;5071340;28;19912;-39
2022/12/05 08:42:14;;;;;;;;;;;5.80;99.90;;;;;;5071860;28;19959;-39
2022/12/05 08:44:40;;;;;;;;;;;5.80;99.90;;;;;;5071773;28;20038;-38
2022/12/05 08:47:05;;;;;;;;;;;5.90;99.90;;;;;;5071438;28;19915;-39
2022/12/05 08:49:30;;;;;;;;;;;5.90;99.90;;;;;;5071515;28;19908;-39
2022/12/05 08:51:56;;;;;;;;;;;5.80;99.90;;;;;;5078735;28;20504;-39
2022/12/05 08:54:21;;;;;;;;;;;5.80;99.90;;;;;;5106525;28;20017;-41
2022/12/05 08:56:49;;;;;;;;;;;5.80;99.90;;;;;;5111148;28;19916;-40
2022/12/05 08:59:14;;;;;;;;;;;5.80;99.90;;;;;;5095775;28;19909;-39
2022/12/05 09:01:41;;;;;;;;;;;5.90;99.90;;;;;;5095166;28;19919;-39
2022/12/05 09:04:07;;;;;;;;;;;5.80;99.90;;;;;;5094723;28;19923;-41
2022/12/05 09:06:33;;;;;;;;;;;5.80;99.90;;;;;;5095019;28;19915;-40
2022/12/05 09:08:59;;;;;;;;;;;5.80;99.90;;;;;;5095516;28;19919;-40
2022/12/05 09:11:26;;;;;;;;;;;5.80;99.90;;;;;;5133112;27;19927;-38
2022/12/05 09:13:53;;;;;;;;;;;5.80;99.90;;;;;;5136231;27;19949;-40
2022/12/05 09:16:20;;;;;;;;;;;5.80;99.90;;;;;;5135777;27;19961;-39
2022/12/05 09:18:46;;;;;;;;;;;5.80;99.90;;;;;;5136193;27;19912;-39
2022/12/05 09:21:13;;;;;;;;;;;5.80;99.90;;;;;;5136297;27;19912;-40
2022/12/05 09:23:39;;;;;;;;;;;5.80;99.90;;;;;;5135333;27;19919;-40
2022/12/05 09:26:05;;;;;;;;;;;5.80;99.90;;;;;;5136291;27;19915;-41
2022/12/05 09:28:31;;;;;;;;;;;5.80;99.90;;;;;;5136158;27;19912;-41
2022/12/05 09:30:57;;;;;;;;;;;5.80;99.90;;;;;;5135348;27;19908;-40
2022/12/05 09:33:23;;;;;;;;;;;5.80;99.90;;;;;;5136005;27;20353;-39
2022/12/05 09:35:49;;;;;;;;;;;5.80;99.90;;;;;;5135395;27;19947;-39
2022/12/05 09:38:14;;;;;;;;;;;5.80;99.90;;;;;;5133066;27;20354;-41
2022/12/05 09:40:41;;;;;;;;;;;5.80;99.90;;;;;;5094079;28;19923;-41
2022/12/05 09:43:12;;;;;;;;;;;5.80;99.90;;;;;;5101929;28;20431;-41
2022/12/05 09:45:41;;;;;;;;;;;5.80;99.90;;;;;;5105884;28;19930;-41
2022/12/05 09:48:14;;;;;;;;;;;5.80;99.90;;;;;;5105374;27;19916;-39
2022/12/05 09:50:44;;;;;;;;;;;5.80;99.90;;;;;;5105699;28;20310;-41
2022/12/05 09:53:22;;;;;;;;;;;5.80;99.90;;;;;;5111117;28;20383;-41
2022/12/05 09:56:06;;;;;;;;;;;5.80;99.90;;;;;;5110798;28;19915;-39
2022/12/05 09:58:41;;;;;;;;;;;5.80;99.90;;;;;;5111263;28;20006;-39
2022/12/05 10:01:13;;;;;;;;;;;5.80;99.90;;;;;;5102810;28;20282;-39
2022/12/05 10:03:43;;;;;;;;;;;5.80;99.90;;;;;;5100093;28;19951;-40
2022/12/05 10:06:14;;;;;;;;;;;5.80;99.90;;;;;;5109989;27;19982;-39
2022/12/05 10:08:46;;;;;;;;;;;5.80;99.90;;;;;;5096773;28;19982;-41
2022/12/05 10:11:26;;;;;;;;;;;5.80;99.90;;;;;;5102816;28;19950;-40
2022/12/05 10:14:09;;;;;;;;;;;5.80;99.90;;;;;;5094369;28;19951;-40
2022/12/05 10:16:40;;;;;;;;;;;5.80;99.90;;;;;;5096824;28;20366;-41
2022/12/05 10:19:14;;;;;;;;;;;5.80;99.90;;;;;;5094778;28;19912;-39
2022/12/05 10:21:52;;;;;;;;;;;5.80;99.90;;;;;;5094971;28;19962;-39
2022/12/05 10:24:22;;;;;;;;;;;5.80;99.90;;;;;;5099683;28;19919;-40
2022/12/05 10:26:50;;;;;;;;;;;5.80;99.90;;;;;;5108778;28;19916;-40
2022/12/05 10:29:21;;;;;;;;;;;5.80;99.90;;;;;;5103188;28;19959;-41
2022/12/05 10:31:47;;;;;;;;;;;5.80;99.90;;;;;;5105448;28;19934;-41
2022/12/05 10:34:28;;;;;;;;;;;5.80;99.90;;;;;;5098006;28;19912;-42
2022/12/05 10:37:14;;;;;;;;;;;5.80;99.90;;;;;;5103793;28;19964;-41
2022/12/05 10:39:40;;;;;;;;;;;5.80;99.90;;;;;;5099869;28;19912;-40
2022/12/05 10:42:07;;;;;;;;;;;5.80;99.90;;;;;;5114589;28;19932;-40
2022/12/05 10:44:33;;;;;;;;;;;5.80;99.90;;;;;;5109006;28;20347;-40
2022/12/05 10:47:00;;;;;;;;;;;5.80;99.90;;;;;;5094642;28;19958;-41
2022/12/05 10:49:26;;;;;;;;;;;5.80;99.90;;;;;;5094443;28;20021;-39
2022/12/05 10:51:51;;;;;;;;;;;5.80;99.90;;;;;;5105610;28;19912;-41
2022/12/05 10:54:19;;;;;;;;;;;5.80;99.90;;;;;;5094233;28;19991;-41
2022/12/05 10:56:46;;;;;;;;;;;5.80;99.90;;;;;;5098606;28;20254;-41
2022/12/05 10:59:14;;;;;;;;;;;5.80;99.90;;;;;;5104335;28;19912;-39
2022/12/05 11:01:43;;;;;;;;;;;5.80;99.90;;;;;;5109214;28;19942;-43
2022/12/05 11:04:27;;;;;;;;;;;5.80;99.90;;;;;;5103041;28;19924;-40
2022/12/05 11:06:57;;;;;;;;;;;5.80;99.90;;;;;;5102419;28;19912;-42
2022/12/05 11:09:24;;;;;;;;;;;5.80;99.90;;;;;;5101409;28;20002;-40
2022/12/05 11:12:16;;;;;;;;;;;5.80;99.90;;;;;;5097631;28;19924;-40
2022/12/05 11:15:14;;;;;;;;;;;5.80;99.90;;;;;;5103181;28;20335;-40
2022/12/05 11:17:42;;;;;;;;;;;5.80;99.90;;;;;;5069462;28;20428;-40
2022/12/05 11:20:16;;;;;;;;;;;5.80;99.90;;;;;;5090877;28;20519;-41
2022/12/05 11:22:42;;;;;;;;;;;5.80;99.90;;;;;;5092730;28;19912;-40
2022/12/05 11:25:22;;;;;;;;;;;5.80;99.90;;;;;;5101851;28;19923;-41
2022/12/05 11:27:47;;;;;;;;;;;5.90;99.90;;;;;;5111318;28;19965;-40
2022/12/05 11:30:24;;;;;;;;;;;5.90;99.90;;;;;;5112647;28;19955;-41
2022/12/05 11:32:50;;;;;;;;;;;5.90;99.90;;;;;;5093383;28;19908;-39
2022/12/05 11:35:16;;;;;;;;;;;5.90;99.90;;;;;;5093470;28;19912;-41
2022/12/05 11:37:52;;;;;;;;;;;5.90;99.90;;;;;;5093777;28;19918;-41
2022/12/05 11:40:26;;;;;;;;;;;5.90;99.90;;;;;;5110692;28;19991;-41
2022/12/05 11:43:11;;;;;;;;;;;5.90;99.90;;;;;;5099293;28;20010;-39
2022/12/05 11:45:41;;;;;;;;;;;5.90;99.90;;;;;;5093492;28;19920;-41
2022/12/05 11:48:25;;;;;;;;;;;5.90;99.90;;;;;;5100890;28;19954;-39
2022/12/05 11:50:59;;;;;;;;;;;5.90;99.90;;;;;;5108999;28;19923;-39
2022/12/05 11:53:44;;;;;;;;;;;5.90;99.90;;;;;;5092306;28;19912;-39
2022/12/05 11:56:09;;;;;;;;;;;6.00;99.90;;;;;;5091713;28;19912;-41
2022/12/05 11:58:41;;;;;;;;;;;5.90;99.90;;;;;;5092909;28;19973;-42
2022/12/05 12:01:17;;;;;;;;;;;5.90;99.90;;;;;;5092810;28;19954;-41
2022/12/05 12:03:54;;;;;;;;;;;5.90;99.90;;;;;;5111283;28;20294;-40
2022/12/05 12:06:22;;;;;;;;;;;6.00;99.90;;;;;;5107061;28;20355;-40
2022/12/05 12:08:57;;;;;;;;;;;6.00;99.90;;;;;;5110672;28;19916;-39
2022/12/05 12:11:38;;;;;;;;;;;5.90;99.90;;;;;;5105242;28;20402;-40
2022/12/05 12:14:06;;;;;;;;;;;6.00;99.90;;;;;;5112211;28;19912;-41
2022/12/05 12:16:40;;;;;;;;;;;6.00;99.90;;;;;;5118193;28;19911;-39
2022/12/05 12:19:10;;;;;;;;;;;6.00;99.90;;;;;;5091824;28;19908;-40
2022/12/05 12:21:48;;;;;;;;;;;6.00;99.90;;;;;;5098695;28;19911;-41
2022/12/05 12:24:13;;;;;;;;;;;6.00;99.90;;;;;;5109500;28;19916;-41
2022/12/05 12:26:57;;;;;;;;;;;5.90;99.90;;;;;;5133486;28;19914;-41
2022/12/05 12:29:41;;;;;;;;;;;6.00;99.90;;;;;;5134096;28;19907;-41
2022/12/05 12:32:12;;;;;;;;;;;6.00;99.90;;;;;;5133636;27;19930;-39
2022/12/05 12:34:44;;;;;;;;;;;6.00;99.90;;;;;;5137235;27;19908;-39
2022/12/05 12:37:21;;;;;;;;;;;5.90;99.90;;;;;;5137252;27;20342;-39
2022/12/05 12:39:50;;;;;;;;;;;5.90;99.90;;;;;;5136650;27;19911;-40
2022/12/05 12:42:19;;;;;;;;;;;5.90;99.90;;;;;;5137432;27;19950;-41
2022/12/05 12:44:51;;;;;;;;;;;5.90;99.90;;;;;;5136852;27;19919;-39
2022/12/05 12:47:16;;;;;;;;;;;5.90;99.90;;;;;;5136472;27;20111;-40
2022/12/05 12:49:48;;;;;;;;;;;5.90;99.90;;;;;;5137166;27;20358;-39
2022/12/05 12:52:15;;;;;;;;;;;6.00;99.90;;;;;;5137089;27;19911;-40
2022/12/05 12:54:59;;;;;;;;;;;6.00;99.90;;;;;;5136180;27;19907;-39
2022/12/05 12:57:43;;;;;;;;;;;6.00;99.90;;;;;;5104711;27;20006;-42
2022/12/05 13:00:27;;;;;;;;;;;6.00;99.90;;;;;;5091231;28;19930;-39
2022/12/05 13:03:01;;;;;;;;;;;6.00;99.90;;;;;;5092813;28;19920;-39
2022/12/05 13:05:35;;;;;;;;;;;6.00;99.90;;;;;;5120321;27;20319;-40
2022/12/05 13:08:00;;;;;;;;;;;6.00;99.90;;;;;;5135002;27;20354;-39
2022/12/05 13:10:32;;;;;;;;;;;6.00;99.90;;;;;;5117518;27;19919;-40
2022/12/05 13:12:58;;;;;;;;;;;6.00;99.90;;;;;;5115163;28;19920;-41
2022/12/05 13:15:33;;;;;;;;;;;6.00;99.90;;;;;;5114902;28;19922;-40
2022/12/05 13:17:58;;;;;;;;;;;6.00;99.90;;;;;;5115476;28;19918;-40
2022/12/05 13:20:26;;;;;;;;;;;6.00;99.90;;;;;;5114509;27;19907;-39
2022/12/05 13:22:52;;;;;;;;;;;6.00;99.90;;;;;;5114079;28;19919;-40
2022/12/05 13:25:20;;;;;;;;;;;6.00;99.90;;;;;;5114350;28;19916;-39
2022/12/05 13:27:57;;;;;;;;;;;6.00;99.90;;;;;;5114369;28;19989;-39
2022/12/05 13:30:22;;;;;;;;;;;6.00;99.90;;;;;;5114158;28;20451;-41
2022/12/05 13:32:53;;;;;;;;;;;6.00;99.90;;;;;;5114862;28;20085;-40
2022/12/05 13:43:49;;;;;;;;;;;6.00;99.90;;;;;;5106616;28;19962;-43
2022/12/05 13:46:21;;;;;;;;;;;6.00;99.90;;;;;;5105794;28;19920;-39
2022/12/05 13:48:48;;;;;;;;;;;6.00;99.90;;;;;;5094744;28;19916;-43
2022/12/05 13:51:21;;;;;;;;;;;6.00;99.90;;;;;;5094845;28;19951;-39
2022/12/05 13:53:49;;;;;;;;;;;6.00;99.90;;;;;;5094938;28;20317;-41
2022/12/05 13:56:14;;;;;;;;;;;6.00;99.90;;;;;;5096395;28;19916;-39
2022/12/05 13:58:40;;;;;;;;;;;6.00;99.90;;;;;;5112356;28;19911;-41
2022/12/05 14:01:23;;;;;;;;;;;6.00;99.90;;;;;;5114574;28;19947;-40
2022/12/05 14:03:49;;;;;;;;;;;6.00;99.90;;;;;;5092834;28;20413;-42
2022/12/05 14:06:33;;;;;;;;;;;6.00;99.90;;;;;;5094545;28;20037;-40
2022/12/05 14:08:59;;;;;;;;;;;6.00;99.90;;;;;;5098626;28;19912;-40
2022/12/05 14:11:25;;;;;;;;;;;6.00;99.90;;;;;;5082202;28;20413;-40
2022/12/05 14:13:50;;;;;;;;;;;6.00;99.90;;;;;;5083040;28;19956;-40
2022/12/05 14:16:25;;;;;;;;;;;6.00;99.90;;;;;;5074451;28;19991;-39
2022/12/05 14:18:59;;;;;;;;;;;6.00;99.90;;;;;;5073466;28;20322;-41
2022/12/05 14:21:43;;;;;;;;;;;6.00;99.90;;;;;;5074326;28;19908;-42
2022/12/05 14:24:12;;;;;;;;;;;6.00;99.90;;;;;;5073559;28;19912;-38
2022/12/05 14:26:40;;;;;;;;;;;6.00;99.90;;;;;;5076068;28;19954;-40
2022/12/05 14:29:11;;;;;;;;;;;6.00;99.90;;;;;;5103787;28;20010;-41
2022/12/05 14:31:44;;;;;;;;;;;6.00;99.90;;;;;;5114078;28;20503;-40
2022/12/05 14:34:23;;;;;;;;;;;6.00;99.90;;;;;;5114499;28;19961;-40
2022/12/05 14:36:52;;;;;;;;;;;6.00;99.90;;;;;;5114511;28;20001;-40
2022/12/05 14:39:21;;;;;;;;;;;6.00;99.90;;;;;;5092546;28;19969;-40
2022/12/05 14:41:54;;;;;;;;;;;6.00;99.90;;;;;;5114355;28;20358;-40
2022/12/05 14:44:19;;;;;;;;;;;6.00;99.90;;;;;;5114430;28;19922;-39
2022/12/05 14:46:45;;;;;;;;;;;6.00;99.90;;;;;;5113554;28;19998;-40
2022/12/05 14:49:29;;;;;;;;;;;6.00;99.90;;;;;;5114255;28;19912;-40
2022/12/05 14:51:56;;;;;;;;;;;6.00;99.90;;;;;;5114238;28;19915;-39
2022/12/05 14:54:22;;;;;;;;;;;6.00;99.90;;;;;;5112918;28;19918;-39
2022/12/05 14:56:49;;;;;;;;;;;6.00;99.90;;;;;;5091774;28;19912;-40